Time;durP1;ratioP1;P1;durP2;ratioP2;P2;SDS_P1;SDS_P2;PMS_P1;PMS_P2;Temp;Humidity;BMP_temperature;BMP_pressure;BME280_temperature;BME280_humidity;BME280_pressure;Samples;Min_cycle;Max_cycle;Signal;HPM_P1;HPM_P2
2023/09/10 00:02:14;;;;;;;2.97;2.22;;;;;;;18.68;100.00;98523.41;15282528;19;20033;-50
2023/09/10 00:07:39;;;;;;;3.20;2.15;;;;;;;18.60;100.00;98526.38;15274236;19;20043;-53
2023/09/10 00:13:05;;;;;;;2.90;2.17;;;;;;;18.54;100.00;98532.66;15283031;19;20006;-52
2023/09/10 00:18:33;;;;;;;2.10;1.90;;;;;;;18.43;100.00;98532.22;15277969;19;20018;-49
2023/09/10 00:24:04;;;;;;;4.18;2.20;;;;;;;18.34;100.00;98533.50;15275854;19;20790;-50
2023/09/10 00:29:29;;;;;;;4.30;2.33;;;;;;;18.24;100.00;98531.16;15272468;19;20021;-48
2023/09/10 00:34:57;;;;;;;2.03;1.90;;;;;;;18.17;100.00;98525.72;15281232;19;20021;-50
2023/09/10 00:40:22;;;;;;;4.40;2.20;;;;;;;18.09;100.00;98534.09;15268483;19;20039;-49
2023/09/10 00:45:47;;;;;;;3.13;2.10;;;;;;;18.04;100.00;98531.16;15281048;19;20045;-49
2023/09/10 00:51:15;;;;;;;4.07;2.05;;;;;;;17.98;100.00;98535.56;15278735;19;20357;-50
2023/09/10 00:56:40;;;;;;;2.92;2.10;;;;;;;17.91;100.00;98533.81;15279612;19;20015;-53
2023/09/10 01:02:05;;;;;;;2.60;2.40;;;;;;;17.84;100.00;98540.09;15281078;19;20014;-56
2023/09/10 01:07:34;;;;;;;3.63;2.30;;;;;;;17.74;100.00;98539.66;15279509;19;20376;-52
2023/09/10 01:13:13;;;;;;;3.35;2.30;;;;;;;17.67;100.00;98538.78;15268952;19;20123;-48
2023/09/10 01:18:47;;;;;;;2.13;1.90;;;;;;;17.57;100.00;98533.72;15275969;19;20014;-48
2023/09/10 01:24:26;;;;;;;2.80;2.30;;;;;;;17.48;100.00;98538.50;15273362;19;20015;-47
2023/09/10 01:29:54;;;;;;;2.20;2.00;;;;;;;17.38;100.00;98532.59;15271279;19;20015;-47
2023/09/10 01:35:23;;;;;;;2.33;2.10;;;;;;;17.31;100.00;98537.19;15276866;19;20039;-49
2023/09/10 01:40:52;;;;;;;2.40;2.20;;;;;;;17.25;100.00;98542.38;15274963;19;20082;-47
2023/09/10 01:46:22;;;;;;;3.70;2.30;;;;;;;17.21;100.00;98538.41;15263504;19;20370;-50
2023/09/10 01:51:46;;;;;;;2.40;2.20;;;;;;;17.17;100.00;98539.00;15273237;19;20014;-47
2023/09/10 01:57:11;;;;;;;3.90;2.40;;;;;;;17.12;100.00;98534.13;15274300;19;20519;-47
2023/09/10 02:02:38;;;;;;;2.53;2.30;;;;;;;17.04;100.00;98540.59;15271555;19;20386;-49
2023/09/10 02:08:03;;;;;;;2.47;2.28;;;;;;;16.98;100.00;98548.72;15270766;19;20023;-49
2023/09/10 02:13:21;;;;;;;3.22;2.30;;;;;;;16.91;100.00;98541.31;15273930;19;20014;-49
2023/09/10 02:18:49;;;;;;;3.50;2.30;;;;;;;16.85;100.00;98544.84;15253972;19;20055;-48
2023/09/10 02:24:20;;;;;;;3.50;2.63;;;;;;;16.80;100.00;98539.16;15268779;19;20363;-47
2023/09/10 02:29:45;;;;;;;2.53;2.30;;;;;;;16.73;100.00;98543.72;15270300;19;20356;-50
2023/09/10 02:35:12;;;;;;;7.60;2.40;;;;;;;16.66;100.00;98542.81;15273830;19;20014;-50
2023/09/10 02:40:37;;;;;;;4.75;2.10;;;;;;;16.60;100.00;98545.28;15272339;19;20014;-46
2023/09/10 02:46:03;;;;;;;2.42;2.22;;;;;;;16.54;100.00;98545.25;15269554;19;20088;-48
2023/09/10 02:51:30;;;;;;;2.80;2.45;;;;;;;16.51;100.00;98551.06;14747815;19;10000416;-49
2023/09/10 02:56:56;;;;;;;2.88;2.30;;;;;;;16.42;100.00;98553.06;15269304;19;20726;-51
2023/09/10 03:02:22;;;;;;;4.28;2.40;;;;;;;16.38;100.00;98552.63;15270605;19;20093;-47
2023/09/10 03:07:49;;;;;;;3.83;2.67;;;;;;;16.33;100.00;98552.41;15269464;19;20060;-49
2023/09/10 03:13:14;;;;;;;4.07;2.40;;;;;;;16.28;100.00;98555.69;15271401;19;20007;-50
2023/09/10 03:18:39;;;;;;;2.65;2.20;;;;;;;16.20;100.00;98547.66;15269717;19;20097;-51
2023/09/10 03:24:08;;;;;;;2.88;2.50;;;;;;;16.16;100.00;98549.94;15252209;19;20017;-47
2023/09/10 03:29:36;;;;;;;2.75;2.40;;;;;;;16.09;100.00;98551.75;15263900;19;20025;-48
2023/09/10 03:35:03;;;;;;;2.63;2.42;;;;;;;16.05;100.00;98557.78;15270085;19;20019;-48
2023/09/10 03:40:30;;;;;;;2.67;2.30;;;;;;;15.98;100.00;98563.13;15263770;19;20476;-47
2023/09/10 03:45:55;;;;;;;2.58;2.38;;;;;;;15.92;100.00;98559.31;15267343;19;20014;-52
2023/09/10 03:51:19;;;;;;;3.00;2.50;;;;;;;15.83;100.00;98560.41;15265402;19;20032;-47
2023/09/10 03:56:46;;;;;;;5.65;2.90;;;;;;;15.78;100.00;98552.00;15255911;19;20018;-47
2023/09/10 04:02:12;;;;;;;2.90;2.60;;;;;;;15.68;100.00;98564.03;15265288;19;20569;-46
2023/09/10 04:07:37;;;;;;;3.15;2.58;;;;;;;15.57;100.00;98572.66;15264788;19;20085;-49
2023/09/10 04:13:05;;;;;;;3.00;2.70;;;;;;;15.44;100.00;98562.47;15262751;19;20014;-48
2023/09/10 04:18:30;;;;;;;5.35;2.90;;;;;;;15.36;100.00;98568.00;15264727;19;20015;-47
2023/09/10 04:24:01;;;;;;;3.25;2.33;;;;;;;15.31;100.00;98568.56;15261433;19;20015;-51
2023/09/10 04:29:28;;;;;;;3.60;2.42;;;;;;;15.27;100.00;98578.13;15249608;19;20017;-48
2023/09/10 04:34:54;;;;;;;3.00;2.60;;;;;;;15.20;100.00;98585.34;15276001;19;20011;-48
2023/09/10 04:40:20;;;;;;;5.00;2.60;;;;;;;15.18;100.00;98587.38;15278384;19;20483;-50
2023/09/10 04:45:47;;;;;;;3.85;2.63;;;;;;;15.12;100.00;98596.25;15278513;19;20461;-50
2023/09/10 04:51:13;;;;;;;3.63;2.60;;;;;;;15.10;100.00;98602.75;15273262;19;20773;-52
2023/09/10 04:56:39;;;;;;;4.32;2.70;;;;;;;15.04;100.00;98603.47;15278488;19;20014;-50
2023/09/10 05:02:08;;;;;;;3.13;2.60;;;;;;;15.02;100.00;98619.09;15268255;19;20027;-47
2023/09/10 05:07:32;;;;;;;5.93;2.40;;;;;;;14.99;100.00;98614.06;15277511;19;20019;-48
2023/09/10 05:12:57;;;;;;;3.25;2.70;;;;;;;15.01;100.00;98601.13;15281142;19;20527;-47
2023/09/10 05:18:24;;;;;;;3.40;2.40;;;;;;;15.02;100.00;98610.94;15273606;19;20024;-48
2023/09/10 05:23:56;;;;;;;6.53;2.72;;;;;;;15.05;100.00;98618.72;15274379;19;20019;-47
2023/09/10 05:29:21;;;;;;;2.72;2.30;;;;;;;15.08;100.00;98617.50;15270749;19;20018;-52
2023/09/10 05:34:49;;;;;;;4.85;2.80;;;;;;;15.10;100.00;98627.16;15269059;19;20007;-49
2023/09/10 05:40:14;;;;;;;3.33;2.55;;;;;;;15.16;100.00;98624.72;15275267;19;20032;-50
2023/09/10 05:45:41;;;;;;;2.92;2.50;;;;;;;15.18;100.00;98647.09;15275215;19;20543;-49
2023/09/10 05:51:08;;;;;;;3.40;2.40;;;;;;;15.25;100.00;98631.75;15271206;19;20014;-52
2023/09/10 05:56:37;;;;;;;4.75;2.40;;;;;;;15.30;100.00;98639.31;15273903;19;20039;-50
2023/09/10 06:02:02;;;;;;;2.45;2.25;;;;;;;15.37;100.00;98641.09;15268608;19;20019;-49
2023/09/10 06:07:29;;;;;;;2.63;2.40;;;;;;;15.46;100.00;98646.47;15268562;19;20695;-52
2023/09/10 06:12:54;;;;;;;2.50;2.30;;;;;;;15.57;100.00;98649.53;15271616;19;20039;-53
2023/09/10 06:18:18;;;;;;;3.35;2.30;;;;;;;15.67;100.00;98640.25;15267460;19;20010;-52
2023/09/10 06:23:52;;;;;;;4.07;2.50;;;;;;;15.81;100.00;98639.41;15267799;19;20559;-55
2023/09/10 06:29:17;;;;;;;3.58;2.33;;;;;;;16.00;100.00;98637.13;15265379;19;20428;-55
2023/09/10 06:34:41;;;;;;;3.75;2.50;;;;;;;16.12;100.00;98638.31;15235569;19;20010;-55
2023/09/10 06:40:10;;;;;;;2.58;2.38;;;;;;;16.27;100.00;98632.00;15271329;19;20048;-55
2023/09/10 06:45:36;;;;;;;3.63;2.80;;;;;;;16.37;100.00;98632.50;15267844;19;20117;-58
2023/09/10 06:51:02;;;;;;;5.00;2.40;;;;;;;16.49;100.00;98630.13;15255662;19;20031;-52
2023/09/10 06:56:29;;;;;;;3.13;2.30;;;;;;;16.60;100.00;98626.91;15250174;19;20018;-53
2023/09/10 07:01:54;;;;;;;3.92;2.45;;;;;;;16.74;100.00;98625.13;15262218;19;20037;-55
2023/09/10 07:07:18;;;;;;;3.15;2.40;;;;;;;16.89;100.00;98627.75;15250197;19;20018;-60
2023/09/10 07:12:48;;;;;;;4.47;2.50;;;;;;;17.03;100.00;98633.34;15270487;19;20027;-53
2023/09/10 07:18:13;;;;;;;3.88;2.42;;;;;;;17.18;100.00;98631.34;15268107;19;20006;-56
2023/09/10 07:23:44;;;;;;;4.68;2.50;;;;;;;17.32;100.00;98631.44;15264391;19;20033;-56
2023/09/10 07:29:15;;;;;;;3.70;2.42;;;;;;;17.49;100.00;98626.50;15264682;19;20014;-54
2023/09/10 07:34:40;;;;;;;4.13;2.40;;;;;;;17.63;100.00;98624.69;15271302;19;20010;-53
2023/09/10 07:40:05;;;;;;;7.03;2.45;;;;;;;17.84;100.00;98631.91;15256726;19;20088;-53
2023/09/10 07:45:33;;;;;;;2.30;2.10;;;;;;;18.02;100.00;98628.66;15270722;19;20078;-57
2023/09/10 07:50:59;;;;;;;4.05;2.20;;;;;;;18.23;100.00;98626.84;15262642;19;20018;-56
2023/09/10 07:56:23;;;;;;;4.45;2.40;;;;;;;18.50;100.00;98619.53;15265216;19;20018;-55
2023/09/10 08:01:50;;;;;;;4.15;2.30;;;;;;;18.74;100.00;98626.28;15264277;19;20043;-53
2023/09/10 08:07:17;;;;;;;5.70;2.22;;;;;;;18.93;100.00;98626.47;15271234;19;20412;-54
2023/09/10 08:12:43;;;;;;;5.03;2.00;;;;;;;19.19;100.00;98627.56;15264089;19;20007;-57
2023/09/10 08:18:11;;;;;;;3.45;2.10;;;;;;;19.44;100.00;98619.50;15278932;19;20032;-53
2023/09/10 08:23:42;;;;;;;2.85;2.20;;;;;;;19.64;100.00;98618.63;14770074;19;10001264;-54
2023/09/10 08:29:08;;;;;;;2.00;1.80;;;;;;;19.90;100.00;98617.69;15277906;19;20320;-58
2023/09/10 08:34:35;;;;;;;3.92;1.92;;;;;;;20.14;100.00;98615.28;15284184;19;20003;-56
2023/09/10 08:40:00;;;;;;;2.47;1.88;;;;;;;20.46;100.00;98618.00;15280578;19;20024;-58
2023/09/10 08:45:25;;;;;;;1.77;1.67;;;;;;;20.74;100.00;98620.38;15269243;19;20095;-55
2023/09/10 08:50:55;;;;;;;2.67;1.80;;;;;;;21.11;100.00;98610.56;15272763;19;20489;-53
2023/09/10 08:56:21;;;;;;;2.75;1.80;;;;;;;21.43;100.00;98603.09;15276961;19;20035;-56
2023/09/10 09:01:47;;;;;;;3.40;1.70;;;;;;;21.69;100.00;98618.41;15277471;19;20011;-55
2023/09/10 09:07:20;;;;;;;4.28;1.80;;;;;;;22.09;100.00;98611.59;15273811;19;20026;-55
2023/09/10 09:12:46;;;;;;;4.95;1.67;;;;;;;22.39;100.00;98616.25;15271831;19;20368;-57
2023/09/10 09:18:11;;;;;;;9.95;1.80;;;;;;;22.62;100.00;98614.66;15263582;19;20505;-54
2023/09/10 09:23:45;;;;;;;8.23;2.10;;;;;;;22.92;100.00;98611.84;15273573;19;20066;-56
2023/09/10 09:29:10;;;;;;;10.93;1.80;;;;;;;23.17;100.00;98621.75;15270636;19;20027;-57
2023/09/10 09:34:36;;;;;;;14.80;2.03;;;;;;;23.44;100.00;98609.47;15276340;19;20025;-57
2023/09/10 09:40:03;;;;;;;12.90;1.85;;;;;;;23.67;100.00;98612.19;15274191;19;20014;-55
2023/09/10 09:45:29;;;;;;;8.88;1.92;;;;;;;23.90;100.00;98606.84;15273377;19;20014;-55
2023/09/10 09:50:55;;;;;;;8.98;2.00;;;;;;;24.17;100.00;98601.63;15259482;19;20024;-57
2023/09/10 09:56:23;;;;;;;9.23;1.67;;;;;;;24.45;100.00;98597.19;15276869;19;20022;-57
2023/09/10 10:01:48;;;;;;;6.45;1.70;;;;;;;24.62;100.00;98589.81;15288446;19;20022;-53
2023/09/10 10:07:15;;;;;;;7.80;2.00;;;;;;;24.87;100.00;98587.75;15270633;19;20023;-55
2023/09/10 10:12:52;;;;;;;5.40;1.50;;;;;;;25.18;100.00;98578.03;15269510;19;20019;-57
2023/09/10 10:18:18;;;;;;;5.63;1.42;;;;;;;25.35;100.00;98571.63;15270553;19;20480;-54
2023/09/10 10:23:56;;;;;;;5.45;1.23;;;;;;;25.59;100.00;98582.44;15257159;19;20018;-55
2023/09/10 10:29:25;;;;;;;5.85;1.52;;;;;;;25.82;86.11;98570.34;15266582;19;20018;-57
2023/09/10 10:34:57;;;;;;;4.75;1.48;;;;;;;25.95;91.05;98566.31;15277578;19;20050;-56
2023/09/10 10:40:30;;;;;;;8.38;1.70;;;;;;;26.15;77.76;98572.13;15282892;19;20039;-56
2023/09/10 10:45:55;;;;;;;5.60;1.80;;;;;;;26.24;77.41;98563.38;15270623;19;20086;-57
2023/09/10 10:51:26;;;;;;;9.55;1.63;;;;;;;26.43;77.87;98563.81;15272681;19;20014;-53
2023/09/10 10:57:13;;;;;;;7.77;1.50;;;;;;;26.52;74.09;98555.91;15260929;19;20021;-57
2023/09/10 11:02:40;;;;;;;3.25;1.45;;;;;;;26.68;81.84;98552.16;15264730;19;20021;-59
2023/09/10 11:08:29;;;;;;;3.10;1.42;;;;;;;26.87;70.68;98557.31;15267837;19;20022;-54
2023/09/10 11:14:09;;;;;;;4.82;1.40;;;;;;;26.92;72.31;98552.66;15265972;19;20375;-58
2023/09/10 11:19:48;;;;;;;3.40;1.40;;;;;;;26.99;67.56;98543.28;15266725;19;20010;-55
2023/09/10 11:25:19;;;;;;;4.25;1.50;;;;;;;27.12;62.75;98534.53;15254335;19;20360;-57
2023/09/10 11:30:44;;;;;;;;;;;;;;;27.38;58.17;98532.72;15268771;19;20082;-56
2023/09/10 11:36:13;;;;;;;5.15;1.55;;;;;;;27.48;59.70;98539.44;15269428;19;19922;-53
2023/09/10 11:41:39;;;;;;;5.17;1.60;;;;;;;27.53;56.55;98540.28;15269974;19;20921;-56
2023/09/10 11:47:04;;;;;;;5.53;1.45;;;;;;;27.57;59.64;98532.28;15281511;19;20018;-57
2023/09/10 11:52:33;;;;;;;5.18;1.50;;;;;;;27.61;56.08;98527.88;15277797;19;20015;-54
2023/09/10 11:57:57;;;;;;;4.43;1.30;;;;;;;27.86;57.65;98529.06;15266347;19;20018;-56
2023/09/10 12:03:23;;;;;;;4.68;1.50;;;;;;;27.94;55.22;98525.75;15280948;19;20452;-56
2023/09/10 12:08:50;;;;;;;2.70;1.30;;;;;;;27.86;57.07;98533.78;15274468;19;20081;-56
2023/09/10 12:14:16;;;;;;;5.22;1.50;;;;;;;27.93;55.73;98523.25;15275371;19;20018;-58
2023/09/10 12:19:42;;;;;;;1.58;1.30;;;;;;;27.92;56.86;98525.22;15275965;19;20488;-55
2023/09/10 12:25:12;;;;;;;7.78;1.38;;;;;;;28.01;55.69;98524.66;15275488;19;20019;-56
2023/09/10 12:30:38;;;;;;;2.85;1.40;;;;;;;28.24;57.45;98515.88;15267622;19;20077;-57
2023/09/10 12:36:04;;;;;;;4.90;1.30;;;;;;;28.44;53.19;98508.66;15279659;19;20025;-54
2023/09/10 12:41:31;;;;;;;2.47;1.30;;;;;;;28.45;52.69;98508.41;15278988;19;20372;-54
2023/09/10 12:46:57;;;;;;;3.25;1.50;;;;;;;28.58;53.32;98506.16;15279349;19;20035;-56
2023/09/10 12:52:22;;;;;;;4.30;1.23;;;;;;;28.91;55.74;98498.41;15272212;19;20047;-54
2023/09/10 12:57:57;;;;;;;4.28;1.35;;;;;;;29.05;51.92;98493.91;15275059;19;20015;-57
2023/09/10 13:03:21;;;;;;;4.15;1.30;;;;;;;28.78;53.43;98494.25;15265071;19;20025;-56
2023/09/10 13:08:46;;;;;;;1.75;1.10;;;;;;;29.06;51.44;98489.22;15270928;19;20026;-58
2023/09/10 13:14:13;;;;;;;6.18;1.45;;;;;;;29.31;51.72;98482.75;15274295;19;20025;-55
2023/09/10 13:19:38;;;;;;;3.67;1.38;;;;;;;29.53;51.04;98476.00;15271111;19;20022;-56
2023/09/10 13:25:09;;;;;;;3.22;1.10;;;;;;;29.50;48.36;98474.66;15273136;19;20002;-58
2023/09/10 13:30:37;;;;;;;4.63;1.33;;;;;;;29.77;49.05;98481.72;15276185;19;20017;-57
2023/09/10 13:36:01;;;;;;;2.60;1.10;;;;;;;29.85;48.78;98482.22;15260457;19;20039;-58
2023/09/10 13:41:26;;;;;;;2.10;1.00;;;;;;;30.31;49.24;98483.91;15271008;19;20020;-55
2023/09/10 13:46:54;;;;;;;3.28;1.05;;;;;;;30.19;47.33;98470.34;15273789;19;20014;-57
2023/09/10 13:52:19;;;;;;;3.47;1.10;;;;;;;30.31;46.43;98473.59;15272020;19;20031;-55
2023/09/10 13:57:44;;;;;;;4.32;1.30;;;;;;;30.61;47.82;98470.88;15272868;19;20025;-59
2023/09/10 14:03:12;;;;;;;4.32;1.10;;;;;;;30.67;47.72;98464.97;15272549;19;20006;-56
2023/09/10 14:08:36;;;;;;;3.63;1.30;;;;;;;31.11;46.99;98470.63;15258661;19;20022;-58
2023/09/10 14:14:02;;;;;;;2.53;1.20;;;;;;;31.06;46.21;98460.38;15265896;19;20030;-56
2023/09/10 14:19:29;;;;;;;2.88;1.20;;;;;;;31.09;47.13;98464.53;15269996;19;20028;-57
2023/09/10 14:25:01;;;;;;;2.55;1.20;;;;;;;31.48;46.70;98460.72;15268966;19;20035;-57
2023/09/10 14:30:26;;;;;;;2.33;1.17;;;;;;;31.52;45.19;98457.03;15273023;19;20009;-59
2023/09/10 14:35:54;;;;;;;2.95;1.00;;;;;;;31.83;45.12;98455.81;15269523;19;20024;-58
2023/09/10 14:41:20;;;;;;;3.60;1.20;;;;;;;31.93;43.86;98452.06;15258473;19;20019;-59
2023/09/10 14:46:44;;;;;;;3.42;1.10;;;;;;;31.91;45.30;98454.31;15272050;19;20098;-59
2023/09/10 14:52:12;;;;;;;2.80;1.05;;;;;;;32.06;43.07;98450.44;15270679;19;20024;-57
2023/09/10 14:57:36;;;;;;;3.50;1.10;;;;;;;32.48;42.53;98456.19;15267974;19;20011;-59
2023/09/10 15:03:02;;;;;;;2.30;1.13;;;;;;;32.12;41.54;98446.47;15268085;19;20569;-57
2023/09/10 15:08:29;;;;;;;2.65;1.00;;;;;;;32.25;40.47;98437.38;15267234;19;20019;-58
2023/09/10 15:13:57;;;;;;;5.30;1.20;;;;;;;32.34;41.28;98436.66;15252340;19;20085;-58
2023/09/10 15:19:24;;;;;;;1.83;1.00;;;;;;;32.71;41.63;98434.88;15262811;19;20018;-57
2023/09/10 15:24:52;;;;;;;3.90;1.05;;;;;;;33.01;40.71;98432.66;15264351;19;20010;-58
2023/09/10 15:30:17;;;;;;;1.30;1.00;;;;;;;33.17;42.05;98422.84;15269683;19;20023;-54
2023/09/10 15:35:43;;;;;;;2.05;0.93;;;;;;;32.83;41.63;98421.28;15269725;19;20019;-57
2023/09/10 15:41:13;;;;;;;5.55;1.15;;;;;;;32.70;43.01;98427.66;15266471;19;20461;-58
2023/09/10 15:46:44;;;;;;;;;;;;;;;32.50;42.64;98421.31;15258153;19;20011;-56
2023/09/10 15:52:09;;;;;;;2.45;0.90;;;;;;;32.43;42.64;98418.09;15266798;19;19921;-53
2023/09/10 15:57:37;;;;;;;3.65;1.10;;;;;;;32.80;42.68;98410.75;15267201;19;20469;-57
2023/09/10 16:03:03;;;;;;;7.70;1.00;;;;;;;32.67;43.07;98417.09;15268753;19;20018;-55
2023/09/10 16:08:29;;;;;;;2.40;0.93;;;;;;;32.60;43.46;98413.91;15262033;19;20042;-54
2023/09/10 16:13:57;;;;;;;2.38;1.08;;;;;;;32.68;42.99;98404.81;15262889;19;20078;-55
2023/09/10 16:19:22;;;;;;;2.80;1.30;;;;;;;32.61;43.85;98398.81;15252866;19;20086;-56
2023/09/10 16:24:53;;;;;;;3.38;1.08;;;;;;;32.16;42.47;98405.72;15263267;19;20026;-56
2023/09/10 16:30:16;;;;;;;5.15;1.10;;;;;;;31.35;44.69;98407.44;15278341;19;20018;-52
2023/09/10 16:35:41;;;;;;;2.85;1.10;;;;;;;31.17;44.74;98411.03;15275932;19;20025;-53
2023/09/10 16:41:06;;;;;;;3.88;1.08;;;;;;;30.77;44.82;98416.75;15276832;19;20090;-48
2023/09/10 16:46:33;;;;;;;5.35;1.05;;;;;;;30.50;45.38;98422.88;15278190;19;20082;-51
2023/09/10 16:51:58;;;;;;;2.20;1.10;;;;;;;30.15;46.21;98417.31;15268398;19;20021;-56
2023/09/10 16:57:23;;;;;;;1.45;0.90;;;;;;;30.00;46.52;98417.44;15275232;19;20035;-53
2023/09/10 17:02:50;;;;;;;3.97;1.00;;;;;;;29.68;46.50;98406.53;15276312;19;20368;-48
2023/09/10 17:08:15;;;;;;;2.85;0.98;;;;;;;29.41;47.14;98411.69;15273761;19;20556;-48
2023/09/10 17:13:44;;;;;;;2.58;1.00;;;;;;;29.25;47.93;98402.59;15275710;19;20077;-50
2023/09/10 17:19:12;;;;;;;3.22;1.10;;;;;;;29.02;47.68;98402.13;15273046;19;20104;-49
2023/09/10 17:24:37;;;;;;;6.07;1.02;;;;;;;28.82;47.75;98406.66;15274394;19;20018;-49
2023/09/10 17:30:02;;;;;;;5.90;1.25;;;;;;;28.48;48.02;98410.03;15278298;19;20037;-49
2023/09/10 17:35:30;;;;;;;3.03;1.00;;;;;;;28.12;47.92;98410.06;15272612;19;20027;-47
2023/09/10 17:40:55;;;;;;;3.03;1.00;;;;;;;27.74;48.96;98403.91;15276700;19;20483;-52
2023/09/10 17:46:20;;;;;;;6.85;1.15;;;;;;;27.41;51.01;98400.50;15272924;19;20014;-48
2023/09/10 17:51:49;;;;;;;5.47;1.23;;;;;;;27.03;53.02;98407.00;15267700;19;20031;-50
2023/09/10 17:57:14;;;;;;;2.95;1.23;;;;;;;26.75;54.10;98414.56;15274717;19;20022;-48
2023/09/10 18:02:39;;;;;;;4.63;1.20;;;;;;;26.54;57.44;98413.63;15274238;19;20010;-49
2023/09/10 18:08:07;;;;;;;3.83;1.20;;;;;;;26.44;56.82;98425.44;15268143;19;20010;-50
2023/09/10 18:13:31;;;;;;;2.33;1.08;;;;;;;26.15;60.70;98423.03;15268854;19;20086;-50
2023/09/10 18:18:59;;;;;;;2.42;1.10;;;;;;;25.91;63.09;98430.78;15268539;19;20042;-51
2023/09/10 18:24:26;;;;;;;3.10;1.30;;;;;;;25.67;64.99;98435.78;15258892;19;20046;-51
2023/09/10 18:29:52;;;;;;;4.53;1.27;;;;;;;25.38;65.35;98439.59;15270505;19;20085;-50
2023/09/10 18:35:17;;;;;;;6.05;1.50;;;;;;;25.22;66.89;98434.97;15268943;19;20033;-51
2023/09/10 18:40:51;;;;;;;3.78;1.20;;;;;;;25.03;68.00;98438.06;15269810;19;20109;-50
2023/09/10 18:46:16;;;;;;;3.42;1.13;;;;;;;24.81;72.38;98443.53;15271524;19;20358;-50
2023/09/10 18:51:41;;;;;;;3.88;1.17;;;;;;;24.46;80.40;98439.97;15266396;19;20385;-50
2023/09/10 18:57:13;;;;;;;3.22;1.40;;;;;;;24.21;91.10;98448.66;15260207;19;20082;-49
2023/09/10 19:02:39;;;;;;;3.25;1.30;;;;;;;24.05;90.78;98433.00;15268830;19;20024;-50
2023/09/10 19:08:11;;;;;;;2.70;1.30;;;;;;;23.93;91.58;98441.28;15264832;19;20025;-54
2023/09/10 19:13:38;;;;;;;;;;;;;;;23.83;95.18;98439.16;15269783;19;20043;-52
2023/09/10 19:19:02;;;;;;;5.00;1.42;;;;;;;23.76;89.68;98436.56;15268654;19;19922;-48
2023/09/10 19:24:27;;;;;;;4.75;1.30;;;;;;;23.67;93.28;98438.91;15267427;19;20081;-49
2023/09/10 19:29:55;;;;;;;5.53;1.20;;;;;;;23.60;91.15;98443.72;15260496;19;20742;-50
2023/09/10 19:35:20;;;;;;;2.33;1.15;;;;;;;23.50;94.73;98446.28;15267896;19;20017;-54
2023/09/10 19:40:44;;;;;;;5.63;1.40;;;;;;;23.32;96.45;98444.53;15269922;19;20020;-52
2023/09/10 19:46:11;;;;;;;2.75;1.30;;;;;;;23.15;98.80;98458.19;15269276;19;20015;-53
2023/09/10 19:51:36;;;;;;;4.72;1.40;;;;;;;22.95;100.00;98464.91;15271777;19;20021;-54
2023/09/10 19:57:01;;;;;;;3.08;1.30;;;;;;;22.76;100.00;98456.81;15266308;19;20035;-51
2023/09/10 20:02:29;;;;;;;5.35;1.50;;;;;;;22.61;100.00;98464.72;15261224;19;20023;-50
2023/09/10 20:07:54;;;;;;;2.10;1.23;;;;;;;22.49;100.00;98467.44;15280212;19;20015;-51
2023/09/10 20:13:19;;;;;;;4.93;1.30;;;;;;;22.34;100.00;98459.66;15283852;19;20031;-51
2023/09/10 20:18:47;;;;;;;3.97;1.55;;;;;;;22.22;100.00;98465.13;15277924;19;20117;-52
2023/09/10 20:24:12;;;;;;;2.45;1.50;;;;;;;22.11;100.00;98468.69;15278509;19;20025;-50
2023/09/10 20:29:38;;;;;;;3.03;1.20;;;;;;;21.98;100.00;98464.25;15257858;19;20011;-49
2023/09/10 20:35:06;;;;;;;3.58;1.20;;;;;;;21.86;100.00;98465.03;15266461;19;20102;-49
2023/09/10 20:40:30;;;;;;;3.85;1.50;;;;;;;21.74;100.00;98458.69;15280716;19;20015;-50
2023/09/10 20:45:56;;;;;;;2.53;1.30;;;;;;;21.62;100.00;98457.81;15280863;19;20022;-51
2023/09/10 20:51:33;;;;;;;1.92;1.30;;;;;;;21.49;100.00;98458.81;15280373;19;20022;-49
2023/09/10 20:56:57;;;;;;;5.93;1.52;;;;;;;21.39;100.00;98459.34;15277029;19;20447;-49
2023/09/10 21:02:21;;;;;;;2.10;1.30;;;;;;;21.30;100.00;98452.50;15278490;19;20014;-48
2023/09/10 21:07:49;;;;;;;6.00;1.38;;;;;;;21.19;100.00;98451.38;15264789;19;20019;-53
2023/09/10 21:13:13;;;;;;;3.55;1.40;;;;;;;21.08;100.00;98450.25;15277823;19;20014;-48
2023/09/10 21:18:38;;;;;;;3.38;1.38;;;;;;;20.99;100.00;98437.94;15276132;19;20081;-49
2023/09/10 21:24:08;;;;;;;4.80;1.50;;;;;;;20.93;100.00;98446.00;15276302;19;20456;-48
2023/09/10 21:29:33;;;;;;;6.50;1.58;;;;;;;20.87;100.00;98438.72;15273342;19;20021;-51
2023/09/10 21:34:59;;;;;;;4.15;1.55;;;;;;;20.83;100.00;98445.69;15274294;19;20078;-48
2023/09/10 21:40:26;;;;;;;3.40;1.50;;;;;;;20.77;100.00;98436.50;15266588;19;20081;-48
2023/09/10 21:45:51;;;;;;;4.35;1.50;;;;;;;20.71;100.00;98447.47;15277432;19;20535;-48
2023/09/10 21:51:16;;;;;;;3.83;1.23;;;;;;;20.64;100.00;98448.38;15278856;19;20007;-47
2023/09/10 21:56:43;;;;;;;3.65;1.40;;;;;;;20.58;100.00;98449.28;15268595;19;20019;-47
2023/09/10 22:02:09;;;;;;;4.53;1.33;;;;;;;20.52;100.00;98439.22;15274254;19;20074;-51
2023/09/10 22:07:33;;;;;;;3.15;1.40;;;;;;;20.49;100.00;98442.44;15274649;19;20035;-48
2023/09/10 22:13:01;;;;;;;3.22;1.30;;;;;;;20.45;100.00;98435.72;15262296;19;20039;-48
2023/09/10 22:18:27;;;;;;;5.10;1.77;;;;;;;20.33;100.00;98433.72;15272799;19;20019;-49
2023/09/10 22:23:52;;;;;;;3.72;1.60;;;;;;;20.24;100.00;98429.59;15272978;19;20017;-48
2023/09/10 22:29:19;;;;;;;5.80;1.80;;;;;;;20.16;100.00;98436.19;15273258;19;20023;-50
2023/09/10 22:34:38;;;;;;;2.53;1.58;;;;;;;20.05;100.00;98428.72;15272508;19;20020;-49
2023/09/10 22:40:02;;;;;;;3.30;1.85;;;;;;;19.98;100.00;98433.41;15271428;19;20025;-77
2023/09/10 22:45:30;;;;;;;4.57;1.60;;;;;;;19.87;100.00;98434.94;15266027;19;20006;-77
2023/09/10 22:50:56;;;;;;;3.70;1.70;;;;;;;19.74;100.00;98426.81;15287086;19;20006;-78
2023/09/10 22:56:24;;;;;;;4.05;1.70;;;;;;;19.65;100.00;98424.34;15283704;19;20031;-77
2023/09/10 23:01:52;;;;;;;3.25;1.58;;;;;;;19.54;100.00;98427.78;15281445;19;20073;-77
2023/09/10 23:07:16;;;;;;;3.15;1.60;;;;;;;19.47;100.00;98426.97;15279373;19;20473;-77
2023/09/10 23:12:42;;;;;;;3.67;1.90;;;;;;;19.36;100.00;98415.69;15281948;19;20018;-77
2023/09/10 23:18:10;;;;;;;5.65;1.92;;;;;;;19.28;100.00;98421.41;15277791;19;20078;-78
2023/09/10 23:23:34;;;;;;;3.42;1.73;;;;;;;19.16;100.00;98423.16;15292711;19;20043;-78
2023/09/10 23:29:00;;;;;;;4.25;1.90;;;;;;;19.05;100.00;98414.59;15289067;19;20022;-78
2023/09/10 23:34:28;;;;;;;3.80;1.75;;;;;;;18.98;100.00;98408.31;15276704;19;20019;-49
2023/09/10 23:39:52;;;;;;;3.95;1.98;;;;;;;18.95;100.00;98408.75;15267723;19;20017;-50
2023/09/10 23:45:18;;;;;;;6.32;2.03;;;;;;;18.93;100.00;98399.91;15270776;19;20029;-53
2023/09/10 23:50:47;;;;;;;2.50;1.83;;;;;;;18.92;100.00;98404.53;15254890;19;20035;-47
2023/09/10 23:56:11;;;;;;;3.33;1.83;;;;;;;18.86;100.00;98390.91;15263231;19;20022;-48
